createdAt,value
2022-09-10T00:21:50.254Z,96771.31
2022-09-10T00:31:54.803Z,96778.13
2022-09-10T00:36:46.733Z,96778.09
2022-09-10T00:41:40.753Z,96776.47
2022-09-10T00:51:57.705Z,96769.59
2022-09-10T01:07:10.665Z,96758.22
2022-09-10T01:12:49.698Z,96762.72
2022-09-10T01:18:17.107Z,96762.13
2022-09-10T02:44:53.461Z,96739.41
2022-09-10T02:54:52.110Z,96742.66
2022-09-10T02:59:43.789Z,96738.91
2022-09-10T03:04:35.505Z,96740.38
2022-09-10T03:09:28.768Z,96736.69
2022-09-10T03:14:23.057Z,96739.25
2022-09-10T03:19:16.232Z,96742.91
2022-09-10T03:24:10.201Z,96745.56
2022-09-10T03:29:02.716Z,96751.44
2022-09-10T03:33:54.424Z,96763.56
2022-09-10T03:43:53.336Z,96757.63
2022-09-10T03:48:45.078Z,96759.72
2022-09-10T03:53:38.452Z,96761.34
2022-09-10T08:16:11.074Z,96878.75
2022-09-10T09:52:37.392Z,96921.09
2022-09-10T12:08:28.449Z,96853.00
2022-09-10T12:39:31.777Z,96842.09
2022-09-10T14:02:04.734Z,96794.69
2022-09-10T16:02:00.138Z,96768.16
2022-09-10T17:55:48.459Z,96860.84
2022-09-10T18:00:43.615Z,96864.56
2022-09-10T18:05:42.922Z,96875.75
2022-09-10T18:10:37.977Z,96883.16
2022-09-10T18:15:30.106Z,96878.66
2022-09-10T18:25:33.749Z,96892.19
2022-09-10T18:30:29.001Z,96899.09
2022-09-10T18:35:21.453Z,96896.44
2022-09-10T18:40:17.529Z,96902.81
2022-09-10T18:45:10.045Z,96915.03
2022-09-10T18:50:05.755Z,96914.72
2022-09-10T18:54:57.407Z,96926.41
2022-09-10T18:59:49.255Z,96930.38
2022-09-10T19:05:07.458Z,96942.63
2022-09-10T19:09:53.969Z,96943.94
2022-09-10T19:14:45.854Z,96947.97
2022-09-10T19:19:37.562Z,96954.59
2022-09-10T19:24:53.471Z,96951.63
2022-09-10T19:29:43.254Z,96952.41
2022-09-10T19:34:35.008Z,96959.50
2022-09-10T19:39:26.893Z,96960.16
2022-09-10T19:44:18.974Z,96960.41
2022-09-10T19:49:12.531Z,96962.78
2022-09-10T19:54:06.704Z,96969.63
2022-09-10T19:59:00.509Z,96967.97
2022-09-10T20:03:55.741Z,96971.38
2022-09-10T20:08:51.793Z,96970.00
2022-09-10T20:13:45.276Z,96971.84
2022-09-10T20:18:40.034Z,96968.66
2022-09-10T20:23:33.660Z,96971.31
2022-09-10T20:28:28.824Z,96968.13
2022-09-10T20:33:21.269Z,96970.50
2022-09-10T20:38:13.243Z,96976.91
2022-09-10T20:43:08.651Z,96974.19
2022-09-10T20:48:03.792Z,96972.28
2022-09-10T20:52:56.245Z,96968.28
2022-09-10T20:57:48.339Z,96969.09
2022-09-10T21:02:40.862Z,96977.03
2022-09-10T21:07:34.624Z,96976.38
2022-09-10T21:12:34.344Z,96978.91
2022-09-10T21:32:51.815Z,96981.94
2022-09-10T22:08:27.171Z,97012.81
2022-09-10T22:34:24.711Z,97000.41
2022-09-10T22:49:51.161Z,97003.38
